Current Weather

Dr Ambedkar Intl

Dr Ambedkar Intl, India (VANP)

Report from: Thursday, April 25, 2024 9:30 AM IST
Current time: Thursday, April 25, 2024 9:58 AM IST

Nearby weather – Weather history – Daily summaries
Weather forecast

Present weatherHaze
Temperature35.0°C (95.0°F)
Heat index38.6°C (101.5°F)
Dew point21.0°C (69.8°F)
Winds 10 kts (5.1 m/s, 11.5 mph) West-Northwest (300°)
Visibility3.1 mi. (5 km)
Clouds Scattered clouds 2,000 ft. (610 m)
Altimeter29.85 in.Hg (1011 mB)
Relative humidity44 %
Density altitude2,680 ft. (817 m)
Remarks No significant changes expected in the next two hours
Flight conditions Marginal Visual Meteorological Conditions
Raw dataVANP 250400Z 30010KT 5000 HZ SCT020 35/21 Q1011 NOSIG
An error has occurred. This application may no longer respond until reloaded. Reload 🗙